Time;durP1;ratioP1;P1;durP2;ratioP2;P2;SDS_P1;SDS_P2;PMS_P1;PMS_P2;Temp;Humidity;BMP_temperature;BMP_pressure;BME280_temperature;BME280_humidity;BME280_pressure;Samples;Min_cycle;Max_cycle;Signal;HPM_P1;HPM_P2
2022/11/27 00:00:57;;;;;;;2.07;1.97;;;19.60;42.20;;;;;;4987197;28;20461;-62
2022/11/27 00:03:23;;;;;;;2.57;2.37;;;19.60;42.10;;;;;;4988155;28;20699;-62
2022/11/27 00:05:54;;;;;;;2.43;2.33;;;19.60;42.00;;;;;;4975688;28;20450;-62
2022/11/27 00:08:20;;;;;;;2.20;2.10;;;19.60;42.10;;;;;;4978338;28;20589;-63
2022/11/27 00:10:45;;;;;;;2.93;2.73;;;19.60;42.10;;;;;;4977748;28;20451;-62
2022/11/27 00:13:11;;;;;;;2.20;2.00;;;19.60;42.10;;;;;;4985126;28;20229;-63
2022/11/27 00:15:36;;;;;;;2.70;2.50;;;19.60;42.10;;;;;;4983933;28;20273;-63
2022/11/27 00:18:02;;;;;;;2.20;2.10;;;19.60;42.10;;;;;;4979917;28;20618;-62
2022/11/27 00:20:27;;;;;;;2.83;2.40;;;19.60;42.10;;;;;;4976771;28;20271;-62
2022/11/27 00:22:53;;;;;;;2.77;2.57;;;19.60;42.90;;;;;;4980719;28;20227;-62
2022/11/27 00:25:18;;;;;;;2.20;2.10;;;19.60;42.10;;;;;;4987797;28;20669;-62
2022/11/27 00:27:44;;;;;;;2.30;2.17;;;19.60;42.10;;;;;;4991155;28;20224;-62
2022/11/27 00:30:10;;;;;;;2.17;1.97;;;19.60;42.10;;;;;;4992429;28;20226;-63
2022/11/27 00:32:35;;;;;;;1.80;1.70;;;19.60;42.10;;;;;;4996477;28;20905;-62
2022/11/27 00:35:01;;;;;;;2.00;1.90;;;19.60;42.10;;;;;;4980948;28;21222;-63
2022/11/27 00:37:26;;;;;;;2.30;2.20;;;19.60;42.90;;;;;;4987067;28;20259;-62
2022/11/27 00:39:52;;;;;;;2.00;1.90;;;19.60;42.10;;;;;;4980425;28;20239;-62
2022/11/27 00:42:17;;;;;;;2.40;2.20;;;19.60;42.10;;;;;;4978619;28;20219;-62
2022/11/27 00:44:43;;;;;;;2.60;2.40;;;19.60;42.10;;;;;;4979497;28;20267;-62
2022/11/27 00:47:08;;;;;;;2.40;2.20;;;19.60;42.10;;;;;;4988420;28;20311;-64
2022/11/27 00:49:34;;;;;;;2.13;2.03;;;19.60;42.10;;;;;;4996600;28;20366;-63
2022/11/27 00:51:59;;;;;;;2.67;2.47;;;19.60;42.10;;;;;;4996043;28;20215;-62
2022/11/27 00:54:25;;;;;;;2.07;1.97;;;19.60;42.10;;;;;;4997154;28;20575;-61
2022/11/27 00:56:50;;;;;;;1.80;1.70;;;19.60;42.10;;;;;;4979261;28;20396;-63
2022/11/27 00:59:16;;;;;;;2.70;2.50;;;19.60;42.10;;;;;;4983978;28;20717;-62
2022/11/27 01:01:42;;;;;;;2.23;2.03;;;19.60;42.00;;;;;;4984818;28;21183;-62
2022/11/27 01:04:11;;;;;;;2.20;1.87;;;19.60;42.10;;;;;;4980765;28;20660;-62
2022/11/27 01:06:37;;;;;;;2.50;2.30;;;19.60;42.10;;;;;;4981893;28;20465;-63
2022/11/27 01:09:04;;;;;;;2.10;2.00;;;19.60;42.00;;;;;;4981426;28;20459;-62
2022/11/27 01:11:32;;;;;;;2.30;2.10;;;19.60;42.10;;;;;;4984149;28;20233;-62
2022/11/27 01:14:04;;;;;;;2.17;1.97;;;19.60;42.00;;;;;;4980728;28;20456;-62
2022/11/27 01:16:31;;;;;;;3.00;2.47;;;19.60;42.10;;;;;;4984262;28;20465;-62
2022/11/27 01:18:58;;;;;;;2.63;2.43;;;19.60;42.10;;;;;;4978055;28;20450;-62
2022/11/27 01:21:26;;;;;;;2.10;2.00;;;19.60;42.10;;;;;;4986433;28;20492;-62
2022/11/27 01:23:53;;;;;;;2.50;2.33;;;19.60;42.00;;;;;;4977540;28;20444;-63
2022/11/27 01:26:18;;;;;;;2.30;2.20;;;19.60;42.10;;;;;;4991088;28;20493;-62
2022/11/27 01:28:45;;;;;;;2.50;2.10;;;19.60;42.10;;;;;;4983414;28;20832;-62
2022/11/27 01:31:14;;;;;;;3.23;3.00;;;19.60;42.10;;;;;;4979284;28;20254;-62
2022/11/27 01:33:39;;;;;;;1.93;1.83;;;19.60;42.00;;;;;;4981633;28;20454;-63
2022/11/27 01:36:06;;;;;;;1.97;1.87;;;19.60;42.10;;;;;;4997827;28;20795;-63
2022/11/27 01:38:33;;;;;;;1.80;1.70;;;19.60;42.00;;;;;;4999858;28;20219;-62
2022/11/27 01:41:11;;;;;;;1.87;1.77;;;19.60;42.00;;;;;;5000154;28;20495;-62
2022/11/27 01:43:40;;;;;;;2.83;1.90;;;19.60;42.00;;;;;;5006034;28;20469;-62
2022/11/27 01:46:28;;;;;;;1.80;1.70;;;19.60;42.00;;;;;;4995508;28;20444;-62
2022/11/27 01:48:59;;;;;;;2.17;2.03;;;19.60;42.00;;;;;;5001274;28;20530;-63
2022/11/27 01:51:25;;;;;;;2.13;2.03;;;19.60;42.00;;;;;;4998905;28;20814;-63
2022/11/27 01:53:52;;;;;;;2.00;1.90;;;19.60;42.00;;;;;;4995426;28;20429;-64
2022/11/27 01:56:19;;;;;;;2.13;1.90;;;19.60;42.00;;;;;;4983737;28;20259;-63
2022/11/27 01:58:45;;;;;;;2.00;1.90;;;19.60;42.00;;;;;;4980938;28;20959;-62
2022/11/27 02:01:11;;;;;;;2.10;2.00;;;19.60;42.00;;;;;;4985041;28;20449;-63
2022/11/27 02:03:36;;;;;;;2.03;1.90;;;19.60;42.00;;;;;;4978332;28;20451;-63
2022/11/27 02:06:02;;;;;;;1.83;1.73;;;19.60;42.00;;;;;;4983362;28;20224;-63
2022/11/27 02:08:27;;;;;;;2.00;1.90;;;19.60;42.00;;;;;;4988275;28;20598;-63
2022/11/27 02:11:12;;;;;;;2.20;2.00;;;19.60;42.00;;;;;;5004541;28;20286;-63
2022/11/27 02:13:39;;;;;;;1.63;1.53;;;19.60;42.00;;;;;;4998367;28;20228;-63
2022/11/27 02:16:10;;;;;;;1.80;1.70;;;19.60;42.00;;;;;;4997706;28;20528;-63
2022/11/27 02:18:47;;;;;;;2.03;1.93;;;19.60;41.90;;;;;;4991454;28;20465;-63
2022/11/27 02:21:40;;;;;;;1.90;1.80;;;19.60;41.90;;;;;;4985988;28;20543;-63
2022/11/27 02:24:32;;;;;;;1.93;1.80;;;19.60;41.90;;;;;;4976789;28;21039;-64
2022/11/27 02:27:14;;;;;;;2.07;1.87;;;19.60;41.90;;;;;;4996635;28;20878;-64
2022/11/27 02:29:43;;;;;;;2.50;1.97;;;19.60;41.90;;;;;;4997880;28;20453;-63
2022/11/27 02:32:34;;;;;;;2.43;2.23;;;19.50;41.90;;;;;;4998910;28;20659;-63
2022/11/27 02:35:07;;;;;;;1.80;1.70;;;19.60;41.90;;;;;;5001548;28;20522;-63
2022/11/27 02:37:38;;;;;;;2.70;1.90;;;19.50;41.90;;;;;;4994009;28;20469;-63
2022/11/27 02:40:17;;;;;;;1.77;1.67;;;19.60;42.00;;;;;;4984374;28;20469;-63
2022/11/27 02:42:51;;;;;;;1.93;1.80;;;19.60;42.00;;;;;;4976701;28;20553;-63
2022/11/27 02:45:34;;;;;;;1.90;1.80;;;19.60;41.90;;;;;;4990814;28;20446;-62
2022/11/27 02:47:59;;;;;;;1.70;1.60;;;19.60;42.00;;;;;;4996699;28;20456;-63
2022/11/27 02:50:28;;;;;;;1.87;1.77;;;19.50;41.90;;;;;;5016268;28;20491;-63
2022/11/27 02:52:58;;;;;;;2.87;1.70;;;19.60;42.00;;;;;;4999404;28;20223;-64
2022/11/27 02:55:28;;;;;;;1.40;1.30;;;19.60;41.90;;;;;;4985924;28;20504;-63
2022/11/27 02:57:56;;;;;;;1.80;1.70;;;19.60;41.90;;;;;;4983016;28;20438;-63
2022/11/27 03:00:22;;;;;;;1.90;1.80;;;19.60;41.90;;;;;;4983316;28;20451;-64
2022/11/27 03:02:58;;;;;;;1.70;1.60;;;19.60;41.90;;;;;;4979822;28;20449;-62
2022/11/27 03:05:27;;;;;;;2.07;1.97;;;19.60;41.90;;;;;;4980446;28;20231;-63
2022/11/27 03:08:05;;;;;;;1.53;1.43;;;19.60;41.90;;;;;;4999830;28;20585;-63
2022/11/27 03:10:41;;;;;;;1.90;1.80;;;19.50;41.80;;;;;;4998655;28;20552;-63
2022/11/27 03:13:07;;;;;;;1.70;1.60;;;19.60;41.90;;;;;;4981286;28;20466;-63
2022/11/27 03:15:56;;;;;;;2.90;2.60;;;19.60;41.80;;;;;;4980312;28;20469;-63
2022/11/27 03:18:36;;;;;;;2.33;2.20;;;19.60;41.80;;;;;;4983065;28;20298;-64
2022/11/27 03:21:11;;;;;;;1.70;1.60;;;19.60;41.80;;;;;;4980555;28;20435;-63
2022/11/27 03:23:37;;;;;;;1.60;1.50;;;19.50;41.80;;;;;;4996109;28;20467;-63
2022/11/27 03:26:03;;;;;;;2.23;1.90;;;19.50;41.80;;;;;;4995915;28;21049;-63
2022/11/27 03:28:29;;;;;;;1.87;1.77;;;19.50;41.70;;;;;;4998276;28;20231;-63
2022/11/27 03:30:54;;;;;;;2.37;2.17;;;19.50;41.70;;;;;;4997123;28;20212;-63
2022/11/27 03:33:20;;;;;;;1.63;1.53;;;19.50;41.70;;;;;;4989742;28;20553;-63
2022/11/27 03:35:45;;;;;;;1.93;1.53;;;19.50;41.70;;;;;;4980299;28;20216;-63
2022/11/27 03:38:11;;;;;;;1.67;1.57;;;19.50;41.70;;;;;;4981745;28;20221;-63
2022/11/27 03:40:46;;;;;;;1.80;1.70;;;19.50;41.70;;;;;;4982304;28;20571;-63
2022/11/27 03:43:22;;;;;;;1.97;1.63;;;19.50;41.70;;;;;;4982915;28;20231;-63
2022/11/27 03:45:56;;;;;;;1.87;1.77;;;19.50;41.70;;;;;;4977441;28;20435;-63
2022/11/27 03:48:25;;;;;;;1.80;1.70;;;19.50;41.80;;;;;;4984777;28;20515;-63
2022/11/27 03:51:03;;;;;;;1.70;1.60;;;19.50;41.70;;;;;;4993789;28;20451;-63
2022/11/27 03:53:37;;;;;;;2.17;1.70;;;19.50;41.70;;;;;;4995385;28;20535;-63
2022/11/27 03:56:20;;;;;;;2.10;2.00;;;19.50;41.70;;;;;;4980922;28;20477;-63
2022/11/27 03:58:58;;;;;;;2.27;2.07;;;19.50;41.60;;;;;;5002792;28;20973;-63
2022/11/27 04:01:25;;;;;;;1.80;1.70;;;19.50;41.70;;;;;;4997345;28;21257;-63
2022/11/27 04:03:50;;;;;;;1.53;1.43;;;19.50;41.70;;;;;;5002139;28;20436;-64
2022/11/27 04:06:16;;;;;;;1.70;1.60;;;19.50;41.60;;;;;;5000413;28;20461;-63
2022/11/27 04:08:42;;;;;;;1.53;1.43;;;19.50;41.70;;;;;;4999143;28;20730;-62
2022/11/27 04:11:08;;;;;;;1.70;1.60;;;19.50;41.60;;;;;;4999327;28;20219;-63
2022/11/27 04:13:33;;;;;;;2.00;1.80;;;19.50;41.60;;;;;;4999825;28;20243;-63
2022/11/27 04:16:00;;;;;;;2.00;1.90;;;19.50;41.60;;;;;;4992064;28;21727;-63
2022/11/27 04:18:26;;;;;;;1.93;1.83;;;19.50;41.60;;;;;;4994068;28;20234;-63
2022/11/27 04:20:52;;;;;;;1.80;1.70;;;19.50;41.70;;;;;;4980336;28;20441;-63
2022/11/27 04:23:17;;;;;;;1.97;1.77;;;19.50;41.60;;;;;;4983491;28;20216;-63
2022/11/27 04:25:43;;;;;;;1.60;1.50;;;19.50;41.60;;;;;;4981406;28;20225;-63
2022/11/27 04:28:08;;;;;;;1.93;1.83;;;19.50;41.60;;;;;;4994529;28;20227;-62
2022/11/27 04:30:34;;;;;;;1.87;1.77;;;19.50;41.60;;;;;;4996094;28;20289;-63
2022/11/27 04:32:59;;;;;;;1.93;1.83;;;19.50;41.60;;;;;;4991537;28;20849;-62
2022/11/27 04:35:25;;;;;;;1.80;1.70;;;19.50;41.60;;;;;;4982397;28;20232;-63
2022/11/27 04:37:50;;;;;;;1.77;1.67;;;19.50;41.60;;;;;;4984790;28;20213;-63
2022/11/27 04:40:16;;;;;;;1.87;1.77;;;19.50;41.60;;;;;;4991253;28;20211;-63
2022/11/27 04:42:42;;;;;;;1.80;1.70;;;19.50;41.60;;;;;;4979485;28;20270;-63
2022/11/27 04:45:08;;;;;;;1.80;1.70;;;19.50;41.60;;;;;;4979672;28;20283;-62
2022/11/27 04:47:33;;;;;;;2.17;2.07;;;19.50;41.60;;;;;;4984266;28;20216;-63
2022/11/27 04:49:59;;;;;;;1.90;1.70;;;19.50;41.60;;;;;;4978247;28;20528;-63
2022/11/27 04:52:25;;;;;;;2.00;1.90;;;19.50;41.60;;;;;;4977775;28;20710;-63
2022/11/27 04:54:50;;;;;;;1.93;1.60;;;19.50;41.60;;;;;;4979809;28;20719;-63
2022/11/27 04:57:16;;;;;;;1.90;1.80;;;19.50;41.60;;;;;;4995418;28;20259;-63
2022/11/27 04:59:41;;;;;;;2.07;1.97;;;19.50;41.60;;;;;;5000942;28;20216;-63
2022/11/27 05:02:07;;;;;;;2.47;2.27;;;19.50;41.60;;;;;;5007182;28;20227;-63
2022/11/27 05:04:32;;;;;;;1.80;1.70;;;19.60;41.70;;;;;;5005725;28;20261;-63
2022/11/27 05:06:58;;;;;;;1.90;1.80;;;19.60;41.60;;;;;;5002296;28;20730;-63
2022/11/27 05:09:23;;;;;;;2.27;1.90;;;19.60;41.60;;;;;;4991914;28;21801;-63
2022/11/27 05:11:49;;;;;;;2.17;2.03;;;19.60;41.60;;;;;;4990709;28;20227;-63
2022/11/27 05:14:15;;;;;;;1.93;1.83;;;19.50;41.50;;;;;;4987692;28;21184;-63
2022/11/27 05:16:53;;;;;;;2.90;2.07;;;19.60;41.60;;;;;;4986510;28;20302;-63
2022/11/27 05:19:20;;;;;;;2.20;2.00;;;19.60;41.60;;;;;;5001754;28;21041;-63
2022/11/27 05:21:47;;;;;;;2.13;1.97;;;19.60;41.60;;;;;;5002224;28;20459;-63
2022/11/27 05:24:14;;;;;;;2.03;1.93;;;19.60;41.60;;;;;;5018633;28;20423;-63
2022/11/27 05:26:41;;;;;;;2.00;1.90;;;19.60;41.60;;;;;;4999058;28;20461;-64
2022/11/27 05:29:08;;;;;;;2.00;1.90;;;19.60;41.60;;;;;;4998009;28;20434;-63
2022/11/27 05:31:34;;;;;;;2.00;1.90;;;19.60;41.60;;;;;;5001974;28;20452;-63
2022/11/27 05:34:00;;;;;;;2.00;1.90;;;19.60;41.60;;;;;;5002665;28;20456;-63
2022/11/27 05:36:26;;;;;;;1.60;1.50;;;19.60;41.50;;;;;;5005181;28;20459;-63
2022/11/27 05:38:51;;;;;;;1.87;1.77;;;19.60;41.50;;;;;;5003550;28;20215;-63
2022/11/27 05:41:17;;;;;;;1.90;1.80;;;19.60;41.50;;;;;;4991934;28;20913;-63
2022/11/27 05:43:43;;;;;;;2.37;2.17;;;19.60;41.50;;;;;;4986051;28;20726;-63
2022/11/27 05:46:11;;;;;;;1.90;1.80;;;19.60;41.50;;;;;;5000946;28;20303;-63
2022/11/27 05:48:37;;;;;;;2.00;1.90;;;19.60;41.50;;;;;;4986708;28;20230;-63
2022/11/27 05:51:03;;;;;;;2.70;2.60;;;19.60;41.50;;;;;;4984407;28;20465;-63
2022/11/27 05:53:29;;;;;;;2.27;2.17;;;19.60;41.40;;;;;;4981987;28;20255;-63
2022/11/27 05:56:03;;;;;;;2.40;2.10;;;19.60;41.40;;;;;;5004505;28;20499;-63
2022/11/27 05:58:28;;;;;;;2.30;2.20;;;19.60;41.40;;;;;;5000773;28;20224;-63
2022/11/27 06:00:54;;;;;;;2.10;2.00;;;19.60;41.50;;;;;;5000007;28;21121;-63
2022/11/27 06:03:19;;;;;;;2.20;2.00;;;19.70;41.50;;;;;;5002939;28;20275;-63
2022/11/27 06:05:45;;;;;;;2.10;2.00;;;19.70;41.40;;;;;;5001605;28;20223;-63
2022/11/27 06:08:11;;;;;;;2.70;2.50;;;19.60;41.40;;;;;;5000987;28;20247;-63
2022/11/27 06:10:39;;;;;;;2.60;2.40;;;19.70;41.40;;;;;;5003974;28;20223;-63
2022/11/27 06:13:05;;;;;;;3.30;2.30;;;19.70;41.40;;;;;;5000901;28;20224;-64
2022/11/27 06:15:31;;;;;;;1.80;1.70;;;19.70;41.40;;;;;;4999114;28;20465;-64
2022/11/27 06:17:57;;;;;;;1.90;1.80;;;19.70;41.40;;;;;;5003518;28;20228;-64
2022/11/27 06:20:22;;;;;;;1.90;1.80;;;19.70;41.40;;;;;;5003265;28;20216;-64
2022/11/27 06:22:48;;;;;;;2.03;1.93;;;19.70;41.40;;;;;;5003046;28;20265;-63
2022/11/27 06:25:14;;;;;;;2.20;2.10;;;19.70;41.30;;;;;;5003900;28;20693;-64
2022/11/27 06:27:40;;;;;;;2.33;2.13;;;19.70;41.40;;;;;;4994109;28;20286;-64
2022/11/27 06:30:06;;;;;;;2.30;2.20;;;19.70;41.40;;;;;;4986281;28;20251;-63
2022/11/27 06:32:31;;;;;;;1.80;1.70;;;19.70;41.40;;;;;;4984444;28;20220;-64
2022/11/27 06:34:57;;;;;;;2.00;1.90;;;19.70;41.40;;;;;;4988108;28;20460;-63
2022/11/27 06:37:23;;;;;;;2.10;2.00;;;19.70;41.40;;;;;;4982169;28;20224;-63
2022/11/27 06:39:49;;;;;;;2.20;2.10;;;19.70;41.30;;;;;;4992847;28;20227;-63
2022/11/27 06:42:14;;;;;;;2.10;2.00;;;19.70;41.30;;;;;;4983981;28;20242;-64
2022/11/27 06:44:40;;;;;;;2.43;2.23;;;19.70;41.30;;;;;;4980671;28;20458;-63
2022/11/27 06:47:06;;;;;;;2.40;2.30;;;19.70;41.30;;;;;;4980921;28;20247;-63
2022/11/27 06:49:33;;;;;;;2.40;2.20;;;19.70;41.30;;;;;;4990469;28;20318;-63
2022/11/27 06:51:59;;;;;;;3.00;2.43;;;19.70;41.20;;;;;;4983398;28;20464;-63
2022/11/27 06:54:25;;;;;;;2.10;2.00;;;19.70;41.30;;;;;;4998647;28;20450;-63
2022/11/27 06:56:50;;;;;;;2.30;2.20;;;19.70;41.20;;;;;;4982514;28;20460;-61
2022/11/27 06:59:16;;;;;;;2.17;2.07;;;19.70;41.20;;;;;;4982897;28;20600;-62
2022/11/27 07:01:42;;;;;;;2.83;2.00;;;19.70;41.20;;;;;;4979356;28;20544;-61
2022/11/27 07:04:10;;;;;;;2.20;2.10;;;19.70;41.20;;;;;;4982214;28;20235;-62
2022/11/27 07:06:35;;;;;;;2.20;2.10;;;19.70;41.20;;;;;;4981675;28;20231;-62
2022/11/27 07:09:01;;;;;;;2.37;2.23;;;19.70;41.20;;;;;;4979099;28;20961;-63
2022/11/27 07:11:29;;;;;;;2.13;2.03;;;19.70;41.20;;;;;;4991502;28;20267;-62
2022/11/27 07:13:56;;;;;;;2.40;2.30;;;19.70;41.20;;;;;;4981201;28;20660;-62
2022/11/27 07:16:22;;;;;;;2.20;2.10;;;19.70;41.20;;;;;;4993827;28;20474;-62
2022/11/27 07:18:50;;;;;;;2.10;2.00;;;19.70;41.20;;;;;;4982338;28;20844;-62
2022/11/27 07:21:16;;;;;;;2.20;2.10;;;19.70;41.20;;;;;;4985979;28;20452;-63
2022/11/27 07:23:42;;;;;;;2.17;1.97;;;19.70;41.20;;;;;;4971215;28;20458;-63
2022/11/27 07:26:10;;;;;;;2.03;1.93;;;19.70;41.20;;;;;;4997483;28;20244;-63
2022/11/27 07:28:36;;;;;;;2.70;2.50;;;19.70;41.20;;;;;;4983386;28;20444;-63
2022/11/27 07:31:02;;;;;;;1.80;1.70;;;19.70;41.10;;;;;;4980780;28;20503;-62
2022/11/27 07:33:27;;;;;;;2.20;2.10;;;19.70;41.20;;;;;;4981552;28;20450;-63
2022/11/27 07:36:01;;;;;;;2.10;2.00;;;19.70;41.20;;;;;;4981852;28;20235;-63
2022/11/27 07:38:27;;;;;;;2.27;2.17;;;19.70;41.20;;;;;;4983179;28;20324;-63
2022/11/27 07:40:52;;;;;;;3.30;2.07;;;19.70;41.10;;;;;;4978072;28;20454;-63
2022/11/27 07:43:18;;;;;;;2.40;2.20;;;19.70;41.20;;;;;;4985769;28;20255;-64
2022/11/27 07:45:43;;;;;;;4.93;2.47;;;19.70;41.20;;;;;;4994648;28;20224;-62
2022/11/27 07:48:09;;;;;;;5.93;2.70;;;19.70;41.20;;;;;;4994123;28;20216;-63
2022/11/27 07:50:34;;;;;;;2.43;2.33;;;19.70;41.20;;;;;;4989990;28;20254;-63
2022/11/27 07:53:00;;;;;;;2.07;1.97;;;19.70;41.20;;;;;;5001114;28;20226;-63
2022/11/27 07:55:26;;;;;;;3.50;2.40;;;19.70;41.10;;;;;;4993639;28;20826;-63
2022/11/27 07:57:51;;;;;;;2.10;2.00;;;19.70;41.20;;;;;;4991537;28;21028;-65
2022/11/27 08:00:17;;;;;;;2.80;2.60;;;19.70;41.10;;;;;;4991548;28;20579;-63
2022/11/27 08:02:43;;;;;;;2.50;2.30;;;19.70;41.10;;;;;;4987175;28;20270;-62
2022/11/27 08:05:08;;;;;;;2.30;2.10;;;19.70;41.10;;;;;;4973855;28;20224;-62
2022/11/27 08:07:34;;;;;;;2.73;2.53;;;19.70;41.20;;;;;;4979052;28;20243;-62
2022/11/27 08:09:59;;;;;;;2.30;2.10;;;19.70;41.20;;;;;;4991330;28;20219;-62
2022/11/27 08:12:25;;;;;;;2.13;2.03;;;19.70;41.20;;;;;;4991513;28;20285;-62
2022/11/27 08:14:51;;;;;;;2.90;2.70;;;19.70;41.10;;;;;;4994394;28;20266;-63
2022/11/27 08:17:16;;;;;;;2.20;2.00;;;19.70;41.20;;;;;;4994957;28;20261;-62
2022/11/27 08:19:42;;;;;;;2.43;2.23;;;19.70;41.10;;;;;;4994731;28;20220;-62
2022/11/27 08:22:12;;;;;;;2.10;2.00;;;19.70;41.10;;;;;;4979166;28;20221;-63
2022/11/27 08:24:37;;;;;;;2.60;2.40;;;19.70;41.10;;;;;;4976588;28;20220;-63
2022/11/27 08:27:03;;;;;;;2.27;2.10;;;19.70;41.10;;;;;;4987825;28;20961;-62
2022/11/27 08:29:29;;;;;;;2.03;1.93;;;19.70;41.10;;;;;;4974628;28;20239;-63
2022/11/27 08:31:55;;;;;;;2.50;2.30;;;19.70;41.10;;;;;;4980715;28;20801;-61
2022/11/27 08:34:20;;;;;;;2.33;2.13;;;19.70;41.10;;;;;;4985766;28;20216;-61
2022/11/27 08:36:46;;;;;;;3.83;2.00;;;19.70;41.10;;;;;;4986761;28;20242;-62
2022/11/27 08:39:11;;;;;;;2.73;2.53;;;19.70;41.10;;;;;;5002144;28;20264;-61
2022/11/27 08:41:37;;;;;;;2.33;2.10;;;19.70;41.10;;;;;;4996416;28;20702;-62
2022/11/27 08:44:02;;;;;;;2.30;2.20;;;19.70;41.10;;;;;;4999786;28;20219;-62
2022/11/27 08:46:28;;;;;;;2.10;2.00;;;19.70;41.10;;;;;;4995195;28;20223;-62
2022/11/27 08:48:53;;;;;;;2.87;2.63;;;19.70;41.20;;;;;;4997690;28;20234;-61
2022/11/27 08:51:19;;;;;;;2.20;2.00;;;19.70;41.20;;;;;;4989296;28;20225;-62
2022/11/27 08:53:45;;;;;;;2.30;2.20;;;19.70;41.10;;;;;;4991279;28;20212;-61
2022/11/27 08:56:15;;;;;;;2.10;1.90;;;19.70;41.10;;;;;;4979920;28;20231;-62
2022/11/27 08:58:41;;;;;;;2.50;2.30;;;19.70;41.10;;;;;;4988227;28;20238;-62
2022/11/27 09:01:08;;;;;;;2.57;2.37;;;19.70;41.20;;;;;;4978028;28;20428;-61
2022/11/27 09:03:34;;;;;;;2.60;2.40;;;19.70;41.10;;;;;;4983420;28;20443;-61
2022/11/27 09:05:59;;;;;;;2.30;2.10;;;19.70;41.10;;;;;;4974970;28;20428;-61
2022/11/27 09:08:25;;;;;;;2.13;2.03;;;19.70;41.20;;;;;;4978773;28;20246;-61
2022/11/27 09:10:50;;;;;;;1.90;1.80;;;19.70;41.10;;;;;;4990966;28;20262;-61
2022/11/27 09:13:16;;;;;;;2.27;2.07;;;19.60;41.80;;;;;;4978021;28;20271;-61
2022/11/27 09:15:41;;;;;;;2.33;2.23;;;19.70;41.20;;;;;;4974041;28;20243;-62
2022/11/27 09:18:07;;;;;;;2.47;2.27;;;19.70;41.20;;;;;;4983453;28;20220;-61
2022/11/27 09:20:33;;;;;;;2.20;2.00;;;19.70;41.20;;;;;;4991169;28;20298;-62
2022/11/27 09:23:01;;;;;;;2.10;2.00;;;19.70;41.10;;;;;;4993415;28;20212;-61
2022/11/27 09:25:27;;;;;;;2.00;1.90;;;19.70;41.20;;;;;;4997524;28;20588;-62
2022/11/27 09:27:52;;;;;;;2.10;2.00;;;19.70;41.20;;;;;;4999035;28;20433;-62
2022/11/27 09:30:18;;;;;;;2.17;2.07;;;19.70;41.20;;;;;;4988761;28;20691;-63
2022/11/27 09:32:43;;;;;;;2.00;1.90;;;19.70;41.20;;;;;;4976804;28;20228;-61
2022/11/27 09:35:09;;;;;;;2.03;1.93;;;19.70;41.20;;;;;;4980041;28;20221;-61
2022/11/27 09:37:34;;;;;;;2.10;2.00;;;19.70;41.20;;;;;;4984715;28;20573;-59
2022/11/27 09:40:00;;;;;;;2.20;2.10;;;19.70;41.20;;;;;;4977752;28;20223;-63
2022/11/27 09:42:53;;;;;;;2.10;2.00;;;19.70;41.20;;;;;;4977408;28;20248;-63
2022/11/27 09:45:23;;;;;;;3.03;2.10;;;19.70;41.20;;;;;;4982678;28;20482;-61
2022/11/27 09:47:57;;;;;;;2.40;2.07;;;19.70;41.20;;;;;;4990421;28;20427;-61
2022/11/27 09:50:27;;;;;;;2.37;2.23;;;19.70;41.20;;;;;;5002962;28;20472;-60
2022/11/27 09:53:00;;;;;;;3.53;2.47;;;19.70;41.20;;;;;;4999625;28;20448;-60
2022/11/27 09:55:51;;;;;;;2.50;2.30;;;19.70;41.20;;;;;;5006152;28;20461;-60
2022/11/27 09:58:30;;;;;;;3.47;2.23;;;19.70;41.50;;;;;;4999364;28;20461;-61
2022/11/27 10:00:55;;;;;;;3.97;2.43;;;19.70;41.10;;;;;;5003580;28;20451;-61
2022/11/27 10:03:26;;;;;;;3.60;2.73;;;19.70;41.20;;;;;;4994906;28;20516;-61
2022/11/27 10:06:07;;;;;;;4.20;2.47;;;19.70;41.20;;;;;;4982558;28;20224;-60
2022/11/27 10:09:02;;;;;;;2.63;2.40;;;19.70;41.10;;;;;;4985058;28;20437;-59
2022/11/27 10:12:04;;;;;;;11.03;2.77;;;19.70;41.20;;;;;;4967768;28;20440;-59
2022/11/27 10:14:51;;;;;;;2.97;2.67;;;19.70;41.20;;;;;;5018902;28;20434;-59
2022/11/27 10:17:21;;;;;;;3.77;2.73;;;19.70;41.10;;;;;;5000628;28;20464;-59
2022/11/27 10:20:16;;;;;;;2.90;2.10;;;19.70;41.20;;;;;;4981351;28;20966;-59
2022/11/27 10:23:01;;;;;;;4.53;2.57;;;19.70;41.20;;;;;;4991614;28;20496;-59
2022/11/27 10:25:45;;;;;;;4.03;2.37;;;19.70;41.20;;;;;;4977127;28;20466;-59
2022/11/27 10:28:22;;;;;;;5.13;2.93;;;19.70;41.20;;;;;;4993976;28;21277;-59
2022/11/27 10:31:09;;;;;;;4.73;2.40;;;19.70;41.20;;;;;;4989603;28;20853;-60
2022/11/27 10:33:44;;;;;;;2.47;2.27;;;19.70;41.20;;;;;;4979067;28;20431;-60
2022/11/27 10:36:29;;;;;;;3.00;2.30;;;19.70;41.20;;;;;;4982501;28;20557;-59
2022/11/27 10:38:57;;;;;;;2.67;2.00;;;19.70;41.10;;;;;;4981697;28;20948;-59
2022/11/27 10:41:31;;;;;;;2.30;2.10;;;19.70;41.10;;;;;;4982487;28;20810;-60
2022/11/27 10:44:02;;;;;;;2.57;2.37;;;19.70;41.10;;;;;;4983513;28;21031;-59
2022/11/27 10:46:31;;;;;;;2.53;2.33;;;19.70;41.10;;;;;;4982790;28;20542;-59
2022/11/27 10:48:57;;;;;;;2.73;2.53;;;19.70;41.10;;;;;;4982300;28;20519;-60
2022/11/27 10:51:33;;;;;;;3.30;3.10;;;19.70;41.10;;;;;;4987611;28;20524;-60
2022/11/27 10:54:00;;;;;;;2.30;2.10;;;19.70;41.30;;;;;;4979609;28;20243;-58
2022/11/27 10:56:47;;;;;;;2.50;1.93;;;19.70;41.10;;;;;;4976779;28;20469;-59
2022/11/27 10:59:18;;;;;;;3.50;2.33;;;19.70;41.10;;;;;;4985014;28;21257;-59
2022/11/27 11:01:46;;;;;;;2.70;2.50;;;19.70;41.00;;;;;;4976789;28;20488;-59
2022/11/27 11:04:14;;;;;;;4.23;2.30;;;19.70;41.10;;;;;;4982954;28;20449;-59
2022/11/27 11:06:45;;;;;;;3.03;2.27;;;19.70;41.10;;;;;;4981695;28;20511;-59
2022/11/27 11:09:20;;;;;;;5.60;3.30;;;19.70;41.10;;;;;;4975232;28;20433;-58
2022/11/27 11:11:46;;;;;;;2.60;2.23;;;19.70;41.10;;;;;;4984428;28;20867;-58
2022/11/27 11:14:24;;;;;;;3.27;2.20;;;19.70;41.10;;;;;;4990259;28;20502;-59
2022/11/27 11:16:51;;;;;;;4.20;3.90;;;19.70;41.10;;;;;;4982297;28;20243;-58
2022/11/27 11:19:27;;;;;;;2.30;2.10;;;19.70;41.10;;;;;;4982543;28;20447;-59
2022/11/27 11:21:53;;;;;;;2.63;2.40;;;19.60;41.00;;;;;;4980521;28;20453;-59
2022/11/27 11:24:28;;;;;;;3.27;2.87;;;19.70;41.20;;;;;;4992933;28;20456;-59
2022/11/27 11:27:09;;;;;;;3.43;2.80;;;19.70;41.10;;;;;;4983391;28;20212;-59
2022/11/27 11:29:39;;;;;;;2.50;2.30;;;19.60;41.00;;;;;;4981306;28;20432;-59
2022/11/27 11:32:19;;;;;;;2.87;2.00;;;19.60;41.10;;;;;;4984089;28;20460;-59
2022/11/27 11:34:51;;;;;;;2.70;2.47;;;19.70;41.20;;;;;;4979158;28;20412;-58
2022/11/27 11:37:21;;;;;;;2.50;2.30;;;19.60;41.10;;;;;;4978984;28;20467;-60
2022/11/27 11:39:54;;;;;;;2.37;1.90;;;19.70;41.20;;;;;;4986838;28;20449;-58
2022/11/27 11:42:26;;;;;;;3.93;2.87;;;19.60;41.10;;;;;;4979881;28;20424;-59
2022/11/27 11:45:01;;;;;;;2.60;2.40;;;19.60;41.10;;;;;;4982317;28;20454;-62
2022/11/27 11:47:27;;;;;;;2.67;2.10;;;19.60;41.10;;;;;;4986000;28;21311;-62
2022/11/27 11:49:55;;;;;;;2.07;1.97;;;19.60;41.10;;;;;;4984841;28;20516;-61
2022/11/27 11:52:32;;;;;;;2.53;2.30;;;19.60;41.10;;;;;;4984530;28;20230;-61
2022/11/27 11:55:00;;;;;;;3.40;2.20;;;19.60;41.10;;;;;;4990854;28;20419;-62
2022/11/27 11:57:31;;;;;;;2.50;2.30;;;19.60;41.10;;;;;;4995405;28;20551;-61
2022/11/27 12:00:02;;;;;;;2.37;2.20;;;19.70;41.20;;;;;;4987212;28;20441;-61
2022/11/27 12:02:43;;;;;;;4.40;2.40;;;19.60;41.10;;;;;;4983524;28;21019;-61
2022/11/27 12:05:24;;;;;;;2.83;2.63;;;19.60;41.10;;;;;;4981886;28;20443;-61
2022/11/27 12:08:22;;;;;;;2.27;2.07;;;19.60;41.10;;;;;;4978879;28;20436;-61
2022/11/27 12:11:10;;;;;;;2.57;2.37;;;19.60;41.10;;;;;;4985913;28;20520;-63
2022/11/27 12:14:02;;;;;;;2.67;1.97;;;19.60;41.10;;;;;;4985695;28;20951;-63
2022/11/27 12:16:44;;;;;;;3.50;2.53;;;19.60;41.10;;;;;;4980015;28;20504;-63
2022/11/27 12:19:31;;;;;;;3.83;2.10;;;19.60;41.10;;;;;;4990217;28;20535;-62
2022/11/27 12:22:17;;;;;;;3.67;2.90;;;19.60;41.10;;;;;;4986102;28;20963;-62
2022/11/27 12:25:09;;;;;;;2.87;2.17;;;19.60;41.10;;;;;;4989382;28;20427;-62
2022/11/27 12:28:12;;;;;;;2.97;2.43;;;19.60;41.10;;;;;;4989676;28;20519;-62
2022/11/27 12:30:55;;;;;;;2.50;2.17;;;19.60;41.00;;;;;;4997769;28;20451;-62
2022/11/27 12:33:42;;;;;;;2.43;2.30;;;19.60;41.10;;;;;;4982991;28;20474;-62
2022/11/27 12:36:15;;;;;;;2.10;2.00;;;19.60;41.10;;;;;;4980241;28;20525;-62
2022/11/27 12:38:53;;;;;;;2.40;2.30;;;19.60;41.10;;;;;;4977781;28;20463;-62
2022/11/27 12:41:49;;;;;;;2.67;2.00;;;19.60;41.10;;;;;;4982542;28;20453;-62
2022/11/27 12:44:46;;;;;;;2.30;2.10;;;19.60;41.10;;;;;;4993072;28;20446;-63
2022/11/27 12:47:11;;;;;;;2.10;2.00;;;19.60;42.00;;;;;;4984312;28;20448;-62
2022/11/27 12:49:42;;;;;;;2.70;2.50;;;19.60;41.20;;;;;;4982688;28;20593;-62
2022/11/27 12:52:19;;;;;;;2.60;2.40;;;19.60;41.10;;;;;;4982529;28;21108;-62
2022/11/27 12:55:00;;;;;;;2.00;1.90;;;19.60;41.10;;;;;;4988594;28;20444;-62
2022/11/27 12:57:55;;;;;;;6.53;2.10;;;19.60;41.90;;;;;;4971019;28;20517;-62
2022/11/27 13:00:23;;;;;;;2.40;2.20;;;19.60;41.10;;;;;;4972585;28;20461;-61
2022/11/27 13:02:58;;;;;;;2.20;2.10;;;19.60;41.00;;;;;;4976973;28;20445;-62